Time;durP1;ratioP1;P1;durP2;ratioP2;P2;SDS_P1;SDS_P2;PMS_P1;PMS_P2;Temp;Humidity;BMP_temperature;BMP_pressure;BME280_temperature;BME280_humidity;BME280_pressure;Samples;Min_cycle;Max_cycle;Signal;HPM_P1;HPM_P2
2023/12/23 00:01:02;;;;;;;13.43;3.67;;;3.90;99.90;;;;;;6279167;22;20015;-90
2023/12/23 00:03:31;;;;;;;19.20;3.90;;;4.20;99.90;;;;;;6256303;22;20030;-91
2023/12/23 00:05:56;;;;;;;15.38;3.95;;;3.80;99.90;;;;;;6281796;22;20440;-90
2023/12/23 00:08:31;;;;;;;10.27;2.53;;;4.10;99.90;;;;;;6281149;22;20019;-95
2023/12/23 00:10:58;;;;;;;15.10;3.30;;;4.20;99.90;;;;;;6281374;22;20076;-90
2023/12/23 00:13:24;;;;;;;12.07;2.95;;;4.50;99.90;;;;;;6255783;22;20015;-95
2023/12/23 00:15:49;;;;;;;13.30;2.67;;;4.30;99.90;;;;;;6280905;22;20018;-90
2023/12/23 00:18:18;;;;;;;17.33;3.50;;;4.20;99.90;;;;;;6280834;22;20250;-90
2023/12/23 00:20:51;;;;;;;12.60;3.47;;;4.10;99.90;;;;;;6230195;22;20253;-92
2023/12/23 00:23:21;;;;;;;14.45;2.75;;;4.40;99.90;;;;;;6280832;22;20015;-90
2023/12/23 00:25:47;;;;;;;7.60;2.80;;;4.20;99.90;;;;;;6279947;22;20034;-90
2023/12/23 00:28:13;;;;;;;13.70;3.40;;;4.10;99.90;;;;;;6306183;22;20459;-89
2023/12/23 00:30:38;;;;;;;9.67;4.27;;;4.00;99.90;;;;;;6254884;22;20409;-90
2023/12/23 00:33:05;;;;;;;8.50;2.53;;;4.90;99.90;;;;;;6255698;22;20073;-90
2023/12/23 00:35:36;;;;;;;15.98;3.63;;;5.00;99.90;;;;;;6281016;22;20022;-91
2023/12/23 00:38:02;;;;;;;28.42;9.45;;;4.20;99.90;;;;;;6255451;22;20051;-90
2023/12/23 00:40:35;;;;;;;14.55;4.55;;;4.20;99.90;;;;;;6306271;22;20026;-95
2023/12/23 00:43:11;;;;;;;10.88;3.28;;;4.20;99.90;;;;;;6282623;22;20488;-90
2023/12/23 00:45:45;;;;;;;6.57;3.25;;;4.40;99.90;;;;;;6232915;22;20026;-90
2023/12/23 00:48:13;;;;;;;15.25;3.63;;;4.40;99.90;;;;;;6281041;22;20312;-90
2023/12/23 00:50:49;;;;;;;9.75;3.17;;;4.30;99.90;;;;;;6306400;22;20450;-91
2023/12/23 00:53:25;;;;;;;;;;;;;;;;;;;;;
2023/12/23 00:55:56;;;;;;;14.52;3.05;;;4.50;99.90;;;;;;6306011;22;20397;-90
2023/12/23 00:58:22;;;;;;;11.77;3.63;;;4.50;99.90;;;;;;6281970;22;20011;-90
2023/12/23 01:00:50;;;;;;;10.03;2.67;;;4.50;99.90;;;;;;6280166;22;20103;-90
2023/12/23 01:03:20;;;;;;;22.08;4.38;;;4.60;99.90;;;;;;6255138;22;20344;-90
2023/12/23 01:05:49;;;;;;;14.88;2.88;;;4.60;99.90;;;;;;6280633;22;20015;-90
2023/12/23 01:08:15;;;;;;;12.50;4.63;;;4.60;99.90;;;;;;6280879;22;20026;-90
2023/12/23 01:10:43;;;;;;;14.93;3.93;;;4.70;99.90;;;;;;6280188;22;20346;-92
2023/12/23 01:13:12;;;;;;;23.13;5.45;;;4.70;99.90;;;;;;6281340;22;20022;-91
2023/12/23 01:15:38;;;;;;;15.27;4.57;;;4.80;99.90;;;;;;6255228;22;20019;-92
2023/12/23 01:18:04;;;;;;;19.17;3.47;;;4.80;99.90;;;;;;6306670;22;20033;-91
2023/12/23 01:20:38;;;;;;;15.15;2.90;;;4.80;99.90;;;;;;6306380;22;20076;-95
2023/12/23 01:23:06;;;;;;;26.42;5.30;;;4.80;99.90;;;;;;6281739;22;20027;-92
2023/12/23 01:25:37;;;;;;;16.13;3.37;;;4.80;99.90;;;;;;6280780;22;20019;-94
2023/12/23 01:28:09;;;;;;;13.45;3.92;;;4.80;99.90;;;;;;6281436;22;20057;-92
2023/12/23 01:30:40;;;;;;;11.95;3.63;;;4.90;99.90;;;;;;6305619;22;20011;-94
2023/12/23 01:33:07;;;;;;;12.90;3.53;;;4.90;99.90;;;;;;6306433;22;20015;-92
2023/12/23 01:35:33;;;;;;;9.98;2.92;;;4.90;99.90;;;;;;6281370;22;20011;-93
2023/12/23 01:38:01;;;;;;;14.77;4.15;;;4.90;99.90;;;;;;6280098;22;20054;-92
2023/12/23 01:40:35;;;;;;;12.02;3.17;;;4.90;99.90;;;;;;6306587;22;20022;-92
2023/12/23 01:43:03;;;;;;;13.88;3.45;;;5.00;99.90;;;;;;6280729;22;20019;-92
2023/12/23 01:45:29;;;;;;;15.40;2.85;;;5.00;99.90;;;;;;6280512;22;20015;-92
2023/12/23 01:48:00;;;;;;;17.00;3.15;;;5.00;99.90;;;;;;6280772;22;20023;-92
2023/12/23 01:50:37;;;;;;;;;;;;;;;;;;;;;
2023/12/23 01:53:06;;;;;;;17.10;5.47;;;5.10;99.90;;;;;;6306212;22;20439;-92
2023/12/23 01:55:46;;;;;;;;;;;;;;;;;;;;;
2023/12/23 01:58:18;;;;;;;8.25;2.28;;;5.00;99.90;;;;;;6306103;22;20095;-92
2023/12/23 02:00:47;;;;;;;11.55;3.30;;;5.10;99.90;;;;;;6280127;22;20072;-92
2023/12/23 02:03:16;;;;;;;10.70;3.30;;;5.00;99.90;;;;;;6280245;22;20057;-92
2023/12/23 02:05:42;;;;;;;12.93;3.10;;;5.20;99.90;;;;;;6305863;22;20019;-92
2023/12/23 02:08:14;;;;;;;15.43;3.28;;;5.20;99.90;;;;;;6306233;22;20094;-92
2023/12/23 02:10:42;;;;;;;6.80;2.60;;;5.20;99.90;;;;;;6279933;22;20090;-96
2023/12/23 02:13:40;;;;;;;15.98;2.88;;;5.20;99.90;;;;;;6281081;22;20023;-92
2023/12/23 02:16:17;;;;;;;;;;;;;;;;;;;;;
2023/12/23 02:18:45;;;;;;;11.88;3.10;;;5.40;99.90;;;;;;6305294;22;20016;-92
2023/12/23 02:21:15;;;;;;;6.90;2.50;;;5.10;99.90;;;;;;6280535;22;20090;-92
2023/12/23 02:23:41;;;;;;;15.30;2.22;;;4.70;99.90;;;;;;6279640;22;20015;-95
2023/12/23 02:26:13;;;;;;;7.83;1.90;;;5.10;99.90;;;;;;6280006;22;20415;-92
2023/12/23 02:28:48;;;;;;;13.00;3.08;;;5.30;99.90;;;;;;6280295;22;20078;-93
2023/12/23 02:31:17;;;;;;;8.50;2.53;;;5.20;99.90;;;;;;6306029;22;20016;-91
2023/12/23 02:33:48;;;;;;;6.30;2.17;;;5.40;99.90;;;;;;6305741;22;20477;-95
2023/12/23 02:36:20;;;;;;;10.88;2.10;;;5.20;99.90;;;;;;6279599;22;20047;-92
2023/12/23 02:38:58;;;;;;;;;;;;;;;;;;;;;
2023/12/23 02:41:25;;;;;;;11.55;2.25;;;5.20;99.90;;;;;;6305385;22;20015;-92
2023/12/23 02:43:51;;;;;;;;;;;5.20;99.90;;;;;;6280548;22;20059;-92
2023/12/23 02:46:17;;;;;;;7.35;2.85;;;5.40;99.90;;;;;;6279968;22;20342;-92
2023/12/23 02:48:50;;;;;;;5.77;2.03;;;5.20;99.90;;;;;;6280227;22;20019;-92
2023/12/23 02:51:16;;;;;;;4.75;2.50;;;4.80;99.90;;;;;;6280104;22;20102;-92
2023/12/23 02:53:50;;;;;;;7.83;3.17;;;4.10;99.90;;;;;;6280152;22;20100;-92
2023/12/23 02:56:19;;;;;;;5.53;1.77;;;5.00;99.90;;;;;;6279660;22;20015;-92
2023/12/23 02:58:53;;;;;;;10.50;2.22;;;4.90;99.90;;;;;;6305472;22;20045;-92
2023/12/23 03:01:23;;;;;;;11.50;2.65;;;3.90;99.90;;;;;;6255175;22;20439;-92
2023/12/23 03:03:52;;;;;;;9.13;3.92;;;4.90;99.90;;;;;;6306014;22;20015;-91
2023/12/23 03:06:20;;;;;;;10.50;2.78;;;4.90;99.90;;;;;;6256795;22;20058;-91
2023/12/23 03:08:56;;;;;;;10.10;2.55;;;4.80;99.90;;;;;;6282107;22;20015;-94
2023/12/23 03:11:22;;;;;;;11.10;2.30;;;4.70;99.90;;;;;;6282147;22;20022;-92
2023/12/23 03:13:53;;;;;;;9.95;2.33;;;4.80;99.90;;;;;;6282336;22;20040;-92
2023/12/23 03:16:22;;;;;;;9.57;2.13;;;6.00;99.90;;;;;;6282729;22;20015;-92
2023/12/23 03:18:53;;;;;;;10.23;2.80;;;4.60;99.90;;;;;;6282182;22;20023;-93
2023/12/23 03:21:28;;;;;;;7.88;1.65;;;4.60;99.90;;;;;;6281969;22;20019;-92
2023/12/23 03:24:04;;;;;;;11.00;3.03;;;4.60;99.90;;;;;;6258111;22;20011;-92
2023/12/23 03:26:42;;;;;;;8.20;2.22;;;5.30;99.90;;;;;;6282121;22;20034;-92
2023/12/23 03:29:08;;;;;;;11.38;1.80;;;4.60;99.90;;;;;;6307371;22;20015;-92
2023/12/23 03:31:41;;;;;;;9.83;2.13;;;4.60;99.90;;;;;;6281838;22;20384;-92
2023/12/23 03:34:18;;;;;;;10.18;3.63;;;4.20;99.90;;;;;;6282526;22;20023;-92
2023/12/23 03:36:53;;;;;;;9.95;2.70;;;4.60;99.90;;;;;;6282036;22;20106;-93
2023/12/23 03:39:24;;;;;;;11.80;3.15;;;4.60;99.90;;;;;;6282279;22;20343;-92
2023/12/23 03:42:02;;;;;;;12.55;3.20;;;4.70;99.90;;;;;;6281470;22;20026;-92
2023/12/23 03:44:30;;;;;;;8.48;2.75;;;3.40;99.90;;;;;;6234019;22;20027;-92
2023/12/23 03:47:13;;;;;;;8.63;2.88;;;4.60;99.90;;;;;;6281745;22;20455;-93
2023/12/23 03:49:39;;;;;;;7.70;2.20;;;5.70;99.90;;;;;;6283574;22;20090;-92
2023/12/23 03:52:11;;;;;;;20.73;2.85;;;4.70;99.90;;;;;;6307269;22;20033;-93
2023/12/23 03:54:39;;;;;;;9.77;2.08;;;4.50;99.90;;;;;;6307837;22;20473;-93
2023/12/23 03:57:10;;;;;;;8.07;2.10;;;4.50;99.90;;;;;;6280878;22;20054;-93
2023/12/23 03:59:40;;;;;;;8.63;2.40;;;4.80;99.90;;;;;;6307476;22;20011;-92
2023/12/23 04:02:18;;;;;;;7.95;2.63;;;4.60;99.90;;;;;;6284119;22;20024;-93
2023/12/23 04:04:52;;;;;;;8.18;2.60;;;4.50;99.90;;;;;;6307649;22;20351;-94
2023/12/23 04:07:22;;;;;;;9.65;2.75;;;4.60;99.90;;;;;;6256704;22;20080;-93
2023/12/23 04:09:49;;;;;;;15.43;4.53;;;4.60;99.90;;;;;;6281382;22;20023;-93
2023/12/23 04:12:19;;;;;;;13.77;2.75;;;4.60;99.90;;;;;;6281455;22;20015;-93
2023/12/23 04:14:52;;;;;;;10.20;2.65;;;4.60;99.90;;;;;;6281408;22;20046;-92
2023/12/23 04:17:21;;;;;;;9.00;2.75;;;4.60;99.90;;;;;;6257679;22;20030;-93
2023/12/23 04:19:57;;;;;;;;;;;;;;;;;;;;;
2023/12/23 04:22:30;;;;;;;10.93;3.23;;;4.60;99.90;;;;;;6307234;22;20090;-93
2023/12/23 04:24:56;;;;;;;10.23;3.10;;;4.60;99.90;;;;;;6281743;22;20016;-93
2023/12/23 04:27:26;;;;;;;8.30;3.00;;;5.60;99.90;;;;;;6281181;22;20022;-92
2023/12/23 04:29:52;;;;;;;15.95;4.20;;;4.60;99.90;;;;;;6256774;22;20246;-92
2023/12/23 04:32:26;;;;;;;6.78;2.10;;;4.50;99.90;;;;;;6257256;22;20015;-91
2023/12/23 04:34:54;;;;;;;6.28;2.47;;;4.60;99.90;;;;;;6282122;22;20015;-92
2023/12/23 04:37:22;;;;;;;7.30;2.22;;;4.60;99.90;;;;;;6281439;22;20022;-92
2023/12/23 04:39:50;;;;;;;8.55;1.98;;;4.10;99.90;;;;;;6281744;22;20520;-91
2023/12/23 04:42:21;;;;;;;9.55;2.50;;;4.20;99.90;;;;;;6256074;22;20094;-91
2023/12/23 04:44:54;;;;;;;9.40;2.85;;;3.90;99.90;;;;;;6282017;22;20015;-91
2023/12/23 04:47:28;;;;;;;14.90;2.25;;;4.60;99.90;;;;;;6307474;22;20016;-91
2023/12/23 04:49:56;;;;;;;6.78;2.33;;;4.50;99.90;;;;;;6282022;22;20054;-92
2023/12/23 04:52:42;;;;;;;7.45;2.40;;;4.60;99.90;;;;;;6281207;22;20015;-91
2023/12/23 04:55:17;;;;;;;10.18;2.67;;;4.60;99.90;;;;;;6306451;22;20189;-91
2023/12/23 04:57:48;;;;;;;7.30;2.70;;;4.50;99.90;;;;;;6256712;22;20112;-91
2023/12/23 05:00:17;;;;;;;8.93;2.15;;;4.90;99.90;;;;;;6282175;22;20069;-91
2023/12/23 05:02:45;;;;;;;11.77;3.80;;;4.50;99.90;;;;;;6281645;22;20372;-92
2023/12/23 05:05:25;;;;;;;7.47;2.70;;;4.50;99.90;;;;;;6281646;22;20023;-91
2023/12/23 05:07:53;;;;;;;16.17;3.22;;;4.40;99.90;;;;;;6307673;22;20356;-92
2023/12/23 05:10:22;;;;;;;7.55;2.75;;;4.60;99.90;;;;;;6256587;22;20072;-91
2023/12/23 05:12:50;;;;;;;8.52;2.65;;;4.50;99.90;;;;;;6307437;22;20339;-92
2023/12/23 05:15:18;;;;;;;10.80;2.47;;;4.60;99.90;;;;;;6281304;22;20434;-92
2023/12/23 05:17:46;;;;;;;7.35;2.40;;;4.60;99.90;;;;;;6307233;22;20012;-92
2023/12/23 05:20:18;;;;;;;8.02;2.40;;;4.50;99.90;;;;;;6282054;22;20099;-91
2023/12/23 05:22:48;;;;;;;3.22;1.70;;;4.60;99.90;;;;;;6255735;22;20342;-91
2023/12/23 05:25:20;;;;;;;6.97;2.15;;;5.80;99.90;;;;;;6281278;22;20086;-91
2023/12/23 05:27:48;;;;;;;7.38;2.10;;;4.50;99.90;;;;;;6280783;22;20026;-92
2023/12/23 05:30:26;;;;;;;6.35;2.42;;;4.60;99.90;;;;;;6281127;22;20141;-92
2023/12/23 05:33:10;;;;;;;3.83;1.60;;;4.60;99.90;;;;;;6281254;22;20019;-91
2023/12/23 05:35:48;;;;;;;;;;;;;;;;;;;;;
2023/12/23 05:38:24;;;;;;;7.70;2.50;;;4.50;99.90;;;;;;6306614;22;20015;-91
2023/12/23 05:40:52;;;;;;;6.57;2.60;;;4.60;99.90;;;;;;6306943;22;20016;-92
2023/12/23 05:43:18;;;;;;;6.35;1.92;;;4.70;99.90;;;;;;6306140;22;20481;-92
2023/12/23 05:45:47;;;;;;;4.20;2.13;;;4.70;99.90;;;;;;6280816;22;20024;-92
2023/12/23 05:48:18;;;;;;;7.28;2.53;;;3.80;99.90;;;;;;6306378;22;20047;-92
2023/12/23 05:50:48;;;;;;;3.42;2.90;;;4.60;99.90;;;;;;6280359;22;20019;-92
2023/12/23 05:53:21;;;;;;;7.93;2.50;;;5.30;99.90;;;;;;6230541;22;20015;-92
2023/12/23 05:55:47;;;;;;;3.45;1.65;;;5.10;99.90;;;;;;6280684;22;20015;-93
2023/12/23 05:58:15;;;;;;;4.57;1.60;;;4.60;99.90;;;;;;6306030;22;20069;-93
2023/12/23 06:00:43;;;;;;;4.50;1.50;;;4.60;99.90;;;;;;6280674;22;20094;-92
2023/12/23 06:03:19;;;;;;;3.60;1.55;;;4.30;99.90;;;;;;6280728;22;20076;-92
2023/12/23 06:05:51;;;;;;;5.47;1.60;;;3.60;99.90;;;;;;6255994;22;20022;-92
2023/12/23 06:08:19;;;;;;;4.30;1.70;;;4.70;99.90;;;;;;6255219;22;20463;-92
2023/12/23 06:10:49;;;;;;;3.97;1.40;;;4.60;99.90;;;;;;6280792;22;20026;-92
2023/12/23 06:13:18;;;;;;;3.55;1.67;;;4.60;99.90;;;;;;6281367;22;20011;-92
2023/12/23 06:16:00;;;;;;;6.70;2.20;;;4.60;99.90;;;;;;6306666;22;20011;-92
2023/12/23 06:18:26;;;;;;;5.70;2.08;;;4.00;99.90;;;;;;6255517;22;20022;-93
2023/12/23 06:21:03;;;;;;;6.63;2.47;;;4.60;99.90;;;;;;6280498;22;20522;-92
2023/12/23 06:23:29;;;;;;;;;;;4.60;99.90;;;;;;6258233;22;20050;-92
2023/12/23 06:25:57;;;;;;;2.28;1.60;;;4.60;99.90;;;;;;6306443;22;19919;-91
2023/12/23 06:28:30;;;;;;;2.72;1.70;;;4.60;99.90;;;;;;6254965;22;20015;-92
2023/12/23 06:31:00;;;;;;;4.07;1.83;;;4.50;99.90;;;;;;6280757;22;20017;-92
2023/12/23 06:33:29;;;;;;;4.50;1.63;;;4.60;99.90;;;;;;6281102;22;20018;-91
2023/12/23 06:35:55;;;;;;;2.47;1.80;;;5.30;99.90;;;;;;6280781;22;20347;-92
2023/12/23 06:38:25;;;;;;;2.23;1.20;;;4.50;99.90;;;;;;6280163;22;20545;-91
2023/12/23 06:40:51;;;;;;;1.38;1.20;;;4.60;99.90;;;;;;6306813;22;20060;-93
2023/12/23 06:43:20;;;;;;;1.73;1.10;;;4.50;99.90;;;;;;6280278;22;20022;-92
2023/12/23 06:45:46;;;;;;;2.43;1.83;;;4.50;99.90;;;;;;6280684;22;20015;-91
2023/12/23 06:48:17;;;;;;;1.23;1.00;;;4.50;99.90;;;;;;6280610;22;20011;-91
2023/12/23 06:50:47;;;;;;;1.13;0.70;;;4.50;99.90;;;;;;6255648;22;20019;-91
2023/12/23 06:53:13;;;;;;;0.77;0.65;;;4.60;99.90;;;;;;6255845;22;20466;-91
2023/12/23 06:55:41;;;;;;;0.80;0.70;;;4.50;99.90;;;;;;6280566;22;20007;-92
2023/12/23 06:58:09;;;;;;;1.88;0.63;;;4.50;99.90;;;;;;6306515;22;20016;-91
2023/12/23 07:00:41;;;;;;;1.38;0.70;;;4.40;99.90;;;;;;6281446;22;20015;-90
2023/12/23 07:03:14;;;;;;;3.08;1.20;;;4.50;99.90;;;;;;6256153;22;20019;-91
2023/12/23 07:05:40;;;;;;;2.58;0.90;;;4.50;99.90;;;;;;6281904;22;20366;-91
2023/12/23 07:08:09;;;;;;;2.53;0.70;;;4.40;99.90;;;;;;6280478;22;20076;-91
2023/12/23 07:11:05;;;;;;;;;;;;;;;;;;;;;
2023/12/23 07:13:34;;;;;;;3.08;0.90;;;4.40;99.90;;;;;;6282928;22;20315;-91
2023/12/23 07:16:05;;;;;;;3.83;0.98;;;4.30;99.90;;;;;;6306159;22;20435;-91
2023/12/23 07:18:30;;;;;;;1.13;0.73;;;4.30;99.90;;;;;;6255677;22;20019;-91
2023/12/23 07:21:00;;;;;;;2.13;1.10;;;4.30;99.90;;;;;;6281085;22;20068;-91
2023/12/23 07:23:36;;;;;;;1.77;1.00;;;4.30;99.90;;;;;;6280681;22;20343;-91
2023/12/23 07:26:30;;;;;;;;;;;;;;;;;;;;;
2023/12/23 07:28:56;;;;;;;2.70;0.82;;;4.20;99.90;;;;;;6306508;22;20011;-91
2023/12/23 07:31:42;;;;;;;1.37;1.27;;;4.20;99.90;;;;;;6279530;22;20090;-91
2023/12/23 07:34:15;;;;;;;1.55;0.82;;;4.20;99.90;;;;;;6284579;22;20430;-91
2023/12/23 07:36:44;;;;;;;2.97;0.90;;;4.40;99.90;;;;;;6279958;22;20019;-91
2023/12/23 07:39:27;;;;;;;0.73;0.52;;;3.70;99.90;;;;;;6254800;22;20015;-91
2023/12/23 07:41:57;;;;;;;1.23;0.70;;;4.30;99.90;;;;;;6280486;22;20019;-91
2023/12/23 07:44:25;;;;;;;1.48;0.80;;;3.30;99.90;;;;;;6306341;22;20447;-91
2023/12/23 07:46:54;;;;;;;1.90;0.82;;;4.20;99.90;;;;;;6280249;22;20122;-92
2023/12/23 07:49:28;;;;;;;2.10;0.90;;;4.20;99.90;;;;;;6306628;22;20053;-92
2023/12/23 07:51:56;;;;;;;2.25;1.27;;;4.20;99.90;;;;;;6307866;22;20366;-92
2023/12/23 07:54:27;;;;;;;1.23;1.10;;;4.20;99.90;;;;;;6282068;22;20094;-96
2023/12/23 07:56:56;;;;;;;3.15;1.33;;;4.20;99.90;;;;;;6283021;22;20435;-89
2023/12/23 07:59:24;;;;;;;4.28;1.60;;;4.10;99.90;;;;;;6308354;22;20012;-88
2023/12/23 08:01:49;;;;;;;1.75;1.10;;;3.90;99.90;;;;;;6281308;22;20016;-89
2023/12/23 08:04:15;;;;;;;2.13;1.00;;;4.20;99.90;;;;;;6281709;22;20022;-88
2023/12/23 08:06:42;;;;;;;2.45;0.80;;;4.20;99.90;;;;;;6307317;22;20401;-88
2023/12/23 08:09:08;;;;;;;2.55;1.00;;;4.10;99.90;;;;;;6281747;22;20016;-88
2023/12/23 08:11:37;;;;;;;5.35;1.35;;;3.60;99.90;;;;;;6307056;22;20016;-90
2023/12/23 08:14:03;;;;;;;4.15;1.30;;;4.10;99.90;;;;;;6256827;22;20095;-90
2023/12/23 08:16:36;;;;;;;2.30;1.08;;;4.20;99.90;;;;;;6306700;22;20019;-91
2023/12/23 08:19:08;;;;;;;2.92;1.40;;;3.70;99.90;;;;;;6307597;22;20403;-88
2023/12/23 08:21:39;;;;;;;0.68;0.63;;;4.20;99.90;;;;;;6281068;22;20019;-90
2023/12/23 08:24:12;;;;;;;1.75;1.00;;;4.10;99.90;;;;;;6307271;22;20447;-89
2023/12/23 08:26:40;;;;;;;1.63;1.00;;;4.30;99.90;;;;;;6280855;22;20084;-92
2023/12/23 08:29:09;;;;;;;2.05;1.23;;;4.10;99.90;;;;;;6280981;22;20015;-92
2023/12/23 08:31:43;;;;;;;1.95;1.35;;;4.10;99.90;;;;;;6281720;22;20509;-90
2023/12/23 08:34:11;;;;;;;3.40;1.23;;;4.20;99.90;;;;;;6281922;22;20393;-91
2023/12/23 08:36:37;;;;;;;2.28;1.20;;;4.10;99.90;;;;;;6307393;22;20012;-90
2023/12/23 08:39:12;;;;;;;2.57;1.20;;;4.20;99.90;;;;;;6281274;22;20053;-90
2023/12/23 08:41:38;;;;;;;1.45;1.10;;;4.10;99.90;;;;;;6281279;22;20038;-91
2023/12/23 08:44:11;;;;;;;1.67;1.30;;;4.20;99.90;;;;;;6281804;22;20454;-89
2023/12/23 08:46:37;;;;;;;1.50;1.15;;;4.30;99.90;;;;;;6307559;22;20094;-90
2023/12/23 08:49:06;;;;;;;1.80;1.40;;;4.30;99.90;;;;;;6282094;22;20485;-90
2023/12/23 08:51:34;;;;;;;4.50;1.63;;;4.30;99.90;;;;;;6282188;22;20011;-90
2023/12/23 08:54:00;;;;;;;2.80;1.02;;;4.30;99.90;;;;;;6282269;22;20585;-89
2023/12/23 08:56:28;;;;;;;2.90;1.03;;;4.20;99.90;;;;;;6281478;22;20047;-91
2023/12/23 08:59:01;;;;;;;2.65;1.13;;;4.20;99.90;;;;;;6281108;22;20046;-90
2023/12/23 09:01:32;;;;;;;2.35;1.27;;;4.20;99.90;;;;;;6307243;22;20086;-91
2023/12/23 09:03:58;;;;;;;1.10;1.00;;;4.20;99.90;;;;;;6281064;22;20035;-90
2023/12/23 09:06:23;;;;;;;2.50;1.40;;;4.20;99.90;;;;;;6307217;22;20018;-90
2023/12/23 09:08:51;;;;;;;6.40;1.80;;;4.20;99.90;;;;;;6306816;22;20011;-90
2023/12/23 09:11:17;;;;;;;3.83;1.25;;;4.20;99.90;;;;;;6256349;22;20016;-91
2023/12/23 09:13:45;;;;;;;1.20;1.10;;;4.20;99.90;;;;;;6280792;22;20017;-91
2023/12/23 09:16:13;;;;;;;3.30;1.60;;;4.20;99.90;;;;;;6280885;22;20011;-91
2023/12/23 09:18:47;;;;;;;4.30;2.13;;;4.30;99.90;;;;;;6281628;22;20015;-91
2023/12/23 09:24:54;;;;;;;;;;;4.30;99.90;;;;;;6308478;22;20449;-90
2023/12/23 09:27:20;;;;;;;1.45;1.30;;;4.30;99.90;;;;;;6255385;22;19991;-90
2023/12/23 09:29:55;;;;;;;;;;;;;;;;;;;;;
2023/12/23 09:32:21;;;;;;;3.40;2.15;;;4.40;99.90;;;;;;6283451;22;20026;-90
2023/12/23 09:34:52;;;;;;;1.17;0.97;;;4.20;99.90;;;;;;6281243;22;20019;-90
2023/12/23 09:37:17;;;;;;;2.28;0.95;;;4.30;99.90;;;;;;6281120;22;20101;-90
2023/12/23 09:39:43;;;;;;;1.67;1.23;;;5.30;99.90;;;;;;6280902;22;20047;-91
2023/12/23 09:42:18;;;;;;;1.27;0.90;;;4.30;99.90;;;;;;6281105;22;20092;-90
2023/12/23 09:44:45;;;;;;;2.42;1.20;;;4.20;99.90;;;;;;6280890;22;20477;-92
2023/12/23 09:47:16;;;;;;;1.33;1.10;;;4.30;99.90;;;;;;6280823;22;20519;-90
2023/12/23 09:49:47;;;;;;;1.67;1.20;;;4.20;99.90;;;;;;6280953;22;20019;-95
2023/12/23 09:52:15;;;;;;;1.63;1.15;;;4.30;99.90;;;;;;6281072;22;20058;-91
2023/12/23 09:54:50;;;;;;;2.05;0.90;;;4.50;99.90;;;;;;6255245;22;20015;-91
2023/12/23 09:57:18;;;;;;;2.33;1.50;;;4.30;99.90;;;;;;6280830;22;20015;-91
2023/12/23 09:59:57;;;;;;;2.22;1.45;;;4.30;99.90;;;;;;6280896;22;20458;-93
2023/12/23 10:02:32;;;;;;;4.82;1.98;;;3.70;99.90;;;;;;6281452;22;20015;-91
2023/12/23 10:04:57;;;;;;;3.30;1.60;;;4.40;99.90;;;;;;6306114;22;20049;-91
2023/12/23 10:07:36;;;;;;;;;;;;;;;;;;;;;
2023/12/23 10:10:05;;;;;;;2.85;1.38;;;4.40;99.90;;;;;;6305346;22;20015;-91
2023/12/23 10:12:36;;;;;;;3.45;1.77;;;5.00;99.90;;;;;;6280407;22;20019;-92
2023/12/23 10:15:11;;;;;;;1.83;1.20;;;4.40;99.90;;;;;;6306149;22;20058;-90
2023/12/23 10:17:40;;;;;;;2.72;1.40;;;4.40;99.90;;;;;;6305456;22;20458;-91
2023/12/23 10:20:06;;;;;;;1.90;1.20;;;4.40;99.90;;;;;;6305585;22;20015;-90
2023/12/23 10:22:31;;;;;;;2.65;1.33;;;4.40;99.90;;;;;;6306563;22;20011;-89
2023/12/23 10:25:00;;;;;;;4.30;1.80;;;4.40;99.90;;;;;;6280607;22;20066;-89
2023/12/23 10:27:35;;;;;;;3.13;1.85;;;4.50;99.90;;;;;;6306918;22;20011;-91
2023/12/23 10:30:05;;;;;;;2.97;2.72;;;4.50;99.90;;;;;;6306248;22;20021;-90
2023/12/23 10:32:38;;;;;;;4.85;3.60;;;4.40;99.90;;;;;;6306841;22;20034;-90
2023/12/23 10:42:45;;;;;;;;;;;4.50;99.90;;;;;;6307490;22;20064;-89
2023/12/23 10:45:12;;;;;;;4.28;2.80;;;4.50;99.90;;;;;;6223723;22;20277;-90
2023/12/23 10:47:39;;;;;;;4.65;2.97;;;4.50;99.90;;;;;;6249621;22;20016;-90
2023/12/23 10:50:07;;;;;;;3.78;2.72;;;4.50;99.90;;;;;;6250060;22;20110;-89
2023/12/23 10:52:33;;;;;;;4.40;2.97;;;4.80;99.90;;;;;;6275233;22;20023;-90
2023/12/23 10:55:05;;;;;;;5.53;3.65;;;4.50;99.90;;;;;;6249570;22;20122;-90
2023/12/23 10:57:32;;;;;;;5.55;4.47;;;3.90;99.90;;;;;;6249101;22;20016;-90
2023/12/23 10:59:58;;;;;;;;;;;4.60;99.90;;;;;;6275851;22;20035;-90
2023/12/23 11:02:38;;;;;;;7.32;4.70;;;4.70;99.90;;;;;;6250098;22;19937;-89
2023/12/23 11:05:07;;;;;;;5.38;4.03;;;4.60;99.90;;;;;;6224720;22;20015;-89
2023/12/23 11:07:42;;;;;;;10.55;6.00;;;4.70;99.90;;;;;;6275441;22;20088;-89
2023/12/23 11:10:17;;;;;;;11.98;8.27;;;4.60;99.90;;;;;;6224944;22;20042;-89
2023/12/23 11:12:48;;;;;;;11.23;7.80;;;4.70;99.90;;;;;;6275617;22;20061;-89
2023/12/23 11:15:13;;;;;;;14.23;8.30;;;4.60;99.90;;;;;;6223892;22;20012;-89
2023/12/23 11:17:43;;;;;;;11.77;8.43;;;4.70;99.90;;;;;;6224351;22;20095;-90
2023/12/23 11:20:33;;;;;;;8.85;6.05;;;4.70;99.90;;;;;;6223788;22;20339;-90
2023/12/23 11:23:48;;;;;;;;;;;;;;;;;;;;;
2023/12/23 11:26:39;;;;;;;16.08;9.45;;;4.80;99.90;;;;;;6251350;22;20039;-90
2023/12/23 11:29:24;;;;;;;11.07;7.32;;;4.80;99.90;;;;;;6251241;22;20082;-90
2023/12/23 11:32:13;;;;;;;13.25;8.60;;;4.80;99.90;;;;;;6226237;22;20070;-89
2023/12/23 11:34:40;;;;;;;11.65;7.18;;;4.80;99.90;;;;;;6226293;22;20030;-89
2023/12/23 11:37:10;;;;;;;12.80;6.70;;;5.00;99.90;;;;;;6226711;22;20099;-89
2023/12/23 11:39:36;;;;;;;8.55;6.13;;;4.80;99.90;;;;;;6277137;22;20072;-89
2023/12/23 11:42:02;;;;;;;13.87;8.83;;;4.90;99.90;;;;;;6225821;22;20019;-89
2023/12/23 11:44:28;;;;;;;;;;;4.90;99.90;;;;;;6293265;22;20084;-89
2023/12/23 11:46:55;;;;;;;12.55;7.88;;;4.90;99.90;;;;;;6282244;22;20281;-90
2023/12/23 11:49:22;;;;;;;12.25;7.65;;;4.20;99.90;;;;;;6308018;22;20011;-88
2023/12/23 11:51:47;;;;;;;14.13;9.65;;;5.00;99.90;;;;;;6282463;22;20011;-88
2023/12/23 11:54:29;;;;;;;15.30;10.97;;;5.10;99.90;;;;;;6281704;22;20037;-90
2023/12/23 11:56:56;;;;;;;17.30;11.82;;;5.10;99.90;;;;;;6281639;22;20019;-90
2023/12/23 11:59:30;;;;;;;17.92;11.95;;;5.20;99.90;;;;;;6281691;22;20022;-88
2023/12/23 12:01:56;;;;;;;17.42;10.95;;;5.20;99.90;;;;;;6283571;22;20098;-91
2023/12/23 12:04:25;;;;;;;20.43;13.73;;;5.30;99.90;;;;;;6307081;22;20298;-89
2023/12/23 12:06:51;;;;;;;19.98;13.43;;;5.30;99.90;;;;;;6307099;22;20023;-90
2023/12/23 12:09:20;;;;;;;17.42;11.73;;;5.20;99.90;;;;;;6280725;22;20085;-93
2023/12/23 12:11:48;;;;;;;17.45;12.77;;;4.60;99.90;;;;;;6281765;22;20335;-89
2023/12/23 12:14:18;;;;;;;21.60;15.40;;;5.10;99.90;;;;;;6307082;22;20034;-89
2023/12/23 12:16:46;;;;;;;24.85;21.42;;;5.40;99.90;;;;;;6281355;22;20011;-89
2023/12/23 12:19:15;;;;;;;24.67;17.75;;;5.40;99.90;;;;;;6281669;22;20019;-88
2023/12/23 12:21:41;;;;;;;13.18;9.45;;;5.40;99.90;;;;;;6282476;22;20047;-89
2023/12/23 12:24:07;;;;;;;10.33;6.93;;;5.30;99.90;;;;;;6281072;22;20015;-92
2023/12/23 12:26:33;;;;;;;15.48;9.77;;;5.40;99.90;;;;;;6306894;22;20019;-88
2023/12/23 12:29:03;;;;;;;23.67;15.60;;;4.80;99.90;;;;;;6281204;22;20077;-88
2023/12/23 12:31:31;;;;;;;16.70;12.15;;;5.40;99.90;;;;;;6308224;22;20518;-89
2023/12/23 12:33:58;;;;;;;19.75;14.10;;;6.00;99.90;;;;;;6281228;22;20049;-89
2023/12/23 12:36:24;;;;;;;13.27;10.20;;;5.50;99.90;;;;;;6306169;22;20019;-89
2023/12/23 12:38:52;;;;;;;11.45;7.57;;;5.50;99.90;;;;;;6307297;22;20015;-89
2023/12/23 12:41:27;;;;;;;14.32;8.57;;;5.60;99.90;;;;;;6280814;22;20034;-89
2023/12/23 12:43:55;;;;;;;15.68;7.25;;;5.70;99.90;;;;;;6280791;22;20023;-89
2023/12/23 12:46:21;;;;;;;12.05;6.95;;;5.80;99.90;;;;;;6306755;22;20023;-88
2023/12/23 12:48:49;;;;;;;10.48;5.47;;;6.00;99.90;;;;;;6307202;22;20015;-89
2023/12/23 12:51:22;;;;;;;15.38;5.75;;;6.10;99.90;;;;;;6255472;22;20076;-89
2023/12/23 12:53:49;;;;;;;13.65;5.15;;;6.40;99.90;;;;;;6281450;22;20022;-90
2023/12/23 12:56:20;;;;;;;20.30;4.97;;;7.30;99.90;;;;;;6306697;22;20015;-89
2023/12/23 12:58:49;;;;;;;17.23;4.53;;;6.80;99.90;;;;;;6281475;22;20026;-89
2023/12/23 13:01:18;;;;;;;13.50;4.13;;;7.10;99.90;;;;;;6306532;22;20019;-90
2023/12/23 13:03:46;;;;;;;27.67;5.78;;;7.30;99.90;;;;;;6306926;22;20053;-89
2023/12/23 13:06:13;;;;;;;13.13;5.38;;;7.40;99.90;;;;;;6280493;22;20015;-93
2023/12/23 13:08:39;;;;;;;20.55;6.03;;;7.60;99.90;;;;;;6307130;22;20016;-90
2023/12/23 13:11:05;;;;;;;19.45;5.68;;;7.70;99.90;;;;;;6306697;22;20079;-90
2023/12/23 13:13:31;;;;;;;18.33;5.97;;;7.70;99.90;;;;;;6280548;22;20015;-89
2023/12/23 13:15:56;;;;;;;19.38;5.68;;;7.80;99.90;;;;;;6280857;22;20377;-90
2023/12/23 13:18:26;;;;;;;20.60;9.07;;;7.70;99.90;;;;;;6280299;22;20026;-90
2023/12/23 13:20:54;;;;;;;29.02;6.95;;;7.80;99.90;;;;;;6306539;22;20015;-93
2023/12/23 13:23:19;;;;;;;20.52;5.40;;;7.40;99.90;;;;;;6280224;22;20015;-90
2023/12/23 13:25:52;;;;;;;24.20;7.13;;;7.90;99.90;;;;;;6255084;22;20015;-89
2023/12/23 13:28:18;;;;;;;24.60;5.95;;;7.90;99.90;;;;;;6280188;22;20023;-90
2023/12/23 13:30:44;;;;;;;23.20;6.80;;;8.00;99.90;;;;;;6306267;22;20011;-89
2023/12/23 13:33:10;;;;;;;30.90;7.78;;;8.00;99.90;;;;;;6280451;22;20019;-89
2023/12/23 13:35:36;;;;;;;27.90;6.67;;;8.00;99.90;;;;;;6280173;22;20077;-89